sensor_id;sensor_type;location;lat;lon;timestamp;P1;durP1;ratioP1;P2;durP2;ratioP2
3726;SDS011;1879;45.876;12.300;2023-02-15T00:01:20;54.13;;;38.83;;
3726;SDS011;1879;45.876;12.300;2023-02-15T00:03:47;56.80;;;39.27;;
3726;SDS011;1879;45.876;12.300;2023-02-15T00:06:16;60.57;;;42.23;;
3726;SDS011;1879;45.876;12.300;2023-02-15T00:08:43;61.80;;;45.87;;
3726;SDS011;1879;45.876;12.300;2023-02-15T00:11:11;60.23;;;42.27;;
3726;SDS011;1879;45.876;12.300;2023-02-15T00:13:39;55.47;;;43.37;;
3726;SDS011;1879;45.876;12.300;2023-02-15T00:16:07;55.60;;;41.97;;
3726;SDS011;1879;45.876;12.300;2023-02-15T00:18:35;58.60;;;43.97;;
3726;SDS011;1879;45.876;12.300;2023-02-15T00:21:03;64.90;;;43.80;;
3726;SDS011;1879;45.876;12.300;2023-02-15T00:23:33;57.87;;;41.37;;
3726;SDS011;1879;45.876;12.300;2023-02-15T00:26:03;60.60;;;41.60;;
3726;SDS011;1879;45.876;12.300;2023-02-15T00:28:32;58.37;;;42.80;;
3726;SDS011;1879;45.876;12.300;2023-02-15T00:31:02;59.23;;;42.70;;
3726;SDS011;1879;45.876;12.300;2023-02-15T00:33:32;52.73;;;41.07;;
3726;SDS011;1879;45.876;12.300;2023-02-15T00:36:00;55.83;;;39.90;;
3726;SDS011;1879;45.876;12.300;2023-02-15T00:38:27;56.60;;;39.77;;
3726;SDS011;1879;45.876;12.300;2023-02-15T00:40:57;53.67;;;39.40;;
3726;SDS011;1879;45.876;12.300;2023-02-15T00:43:25;55.00;;;38.87;;
3726;SDS011;1879;45.876;12.300;2023-02-15T00:45:53;59.03;;;39.83;;
3726;SDS011;1879;45.876;12.300;2023-02-15T00:48:20;54.27;;;39.90;;
3726;SDS011;1879;45.876;12.300;2023-02-15T00:50:48;51.90;;;38.90;;
3726;SDS011;1879;45.876;12.300;2023-02-15T00:53:16;51.23;;;38.83;;
3726;SDS011;1879;45.876;12.300;2023-02-15T00:55:44;51.53;;;38.80;;
3726;SDS011;1879;45.876;12.300;2023-02-15T00:58:12;51.83;;;38.70;;
3726;SDS011;1879;45.876;12.300;2023-02-15T01:00:41;50.67;;;37.70;;
3726;SDS011;1879;45.876;12.300;2023-02-15T01:03:13;52.57;;;36.90;;
3726;SDS011;1879;45.876;12.300;2023-02-15T01:05:41;51.23;;;36.90;;
3726;SDS011;1879;45.876;12.300;2023-02-15T01:08:08;49.33;;;35.60;;
3726;SDS011;1879;45.876;12.300;2023-02-15T01:10:36;50.60;;;36.53;;
3726;SDS011;1879;45.876;12.300;2023-02-15T01:13:03;55.70;;;37.00;;
3726;SDS011;1879;45.876;12.300;2023-02-15T01:15:33;46.63;;;33.30;;
3726;SDS011;1879;45.876;12.300;2023-02-15T01:18:00;47.23;;;34.33;;
3726;SDS011;1879;45.876;12.300;2023-02-15T01:20:28;41.63;;;32.70;;
3726;SDS011;1879;45.876;12.300;2023-02-15T01:22:56;43.60;;;30.97;;
3726;SDS011;1879;45.876;12.300;2023-02-15T01:25:23;37.43;;;30.00;;
3726;SDS011;1879;45.876;12.300;2023-02-15T01:27:51;37.83;;;29.03;;
3726;SDS011;1879;45.876;12.300;2023-02-15T01:30:18;41.37;;;30.03;;
3726;SDS011;1879;45.876;12.300;2023-02-15T01:32:46;40.90;;;30.20;;
3726;SDS011;1879;45.876;12.300;2023-02-15T01:35:13;37.10;;;28.40;;
3726;SDS011;1879;45.876;12.300;2023-02-15T01:37:40;36.60;;;28.80;;
3726;SDS011;1879;45.876;12.300;2023-02-15T01:40:08;41.87;;;28.60;;
3726;SDS011;1879;45.876;12.300;2023-02-15T01:42:39;38.37;;;29.37;;
3726;SDS011;1879;45.876;12.300;2023-02-15T01:45:14;37.73;;;28.93;;
3726;SDS011;1879;45.876;12.300;2023-02-15T01:47:51;38.90;;;28.73;;
3726;SDS011;1879;45.876;12.300;2023-02-15T01:50:22;38.57;;;27.87;;
3726;SDS011;1879;45.876;12.300;2023-02-15T01:52:54;40.20;;;29.00;;
3726;SDS011;1879;45.876;12.300;2023-02-15T01:55:25;41.43;;;27.50;;
3726;SDS011;1879;45.876;12.300;2023-02-15T01:57:56;34.87;;;27.77;;
3726;SDS011;1879;45.876;12.300;2023-02-15T02:00:23;37.67;;;26.20;;
3726;SDS011;1879;45.876;12.300;2023-02-15T02:02:52;35.90;;;25.43;;
3726;SDS011;1879;45.876;12.300;2023-02-15T02:05:21;31.70;;;25.23;;
3726;SDS011;1879;45.876;12.300;2023-02-15T02:07:49;35.30;;;26.20;;
3726;SDS011;1879;45.876;12.300;2023-02-15T02:10:19;37.47;;;25.40;;
3726;SDS011;1879;45.876;12.300;2023-02-15T02:12:49;33.63;;;25.50;;
3726;SDS011;1879;45.876;12.300;2023-02-15T02:15:18;33.20;;;25.07;;
3726;SDS011;1879;45.876;12.300;2023-02-15T02:17:54;31.17;;;24.33;;
3726;SDS011;1879;45.876;12.300;2023-02-15T02:20:34;34.30;;;26.03;;
3726;SDS011;1879;45.876;12.300;2023-02-15T02:23:22;30.73;;;23.30;;
3726;SDS011;1879;45.876;12.300;2023-02-15T02:26:00;29.90;;;24.07;;
3726;SDS011;1879;45.876;12.300;2023-02-15T02:31:52;32.53;;;24.80;;
3726;SDS011;1879;45.876;12.300;2023-02-15T02:34:46;29.50;;;22.63;;
3726;SDS011;1879;45.876;12.300;2023-02-15T02:37:22;31.50;;;24.10;;
3726;SDS011;1879;45.876;12.300;2023-02-15T02:39:59;32.20;;;23.30;;
3726;SDS011;1879;45.876;12.300;2023-02-15T02:42:31;33.97;;;23.90;;
3726;SDS011;1879;45.876;12.300;2023-02-15T02:45:03;30.53;;;23.73;;
3726;SDS011;1879;45.876;12.300;2023-02-15T02:47:33;29.40;;;24.17;;
3726;SDS011;1879;45.876;12.300;2023-02-15T02:50:06;34.00;;;25.07;;
3726;SDS011;1879;45.876;12.300;2023-02-15T02:52:37;33.27;;;24.93;;
3726;SDS011;1879;45.876;12.300;2023-02-15T02:55:06;35.37;;;23.63;;
3726;SDS011;1879;45.876;12.300;2023-02-15T02:57:39;35.43;;;23.93;;
3726;SDS011;1879;45.876;12.300;2023-02-15T03:00:11;30.63;;;23.27;;
3726;SDS011;1879;45.876;12.300;2023-02-15T03:02:41;30.10;;;24.17;;
3726;SDS011;1879;45.876;12.300;2023-02-15T03:05:13;33.60;;;25.17;;
3726;SDS011;1879;45.876;12.300;2023-02-15T03:07:44;29.03;;;24.10;;
3726;SDS011;1879;45.876;12.300;2023-02-15T03:10:16;33.30;;;24.17;;
3726;SDS011;1879;45.876;12.300;2023-02-15T03:12:46;26.80;;;22.03;;
3726;SDS011;1879;45.876;12.300;2023-02-15T03:15:16;29.33;;;23.90;;
3726;SDS011;1879;45.876;12.300;2023-02-15T03:17:47;29.23;;;23.47;;
3726;SDS011;1879;45.876;12.300;2023-02-15T03:20:20;35.80;;;23.43;;
3726;SDS011;1879;45.876;12.300;2023-02-15T03:22:51;32.97;;;23.47;;
3726;SDS011;1879;45.876;12.300;2023-02-15T03:25:22;31.97;;;24.00;;
3726;SDS011;1879;45.876;12.300;2023-02-15T03:27:53;32.97;;;24.67;;
3726;SDS011;1879;45.876;12.300;2023-02-15T03:30:24;25.50;;;21.43;;
3726;SDS011;1879;45.876;12.300;2023-02-15T03:32:52;30.23;;;22.30;;
3726;SDS011;1879;45.876;12.300;2023-02-15T03:35:22;31.00;;;22.20;;
3726;SDS011;1879;45.876;12.300;2023-02-15T03:37:53;30.57;;;21.80;;
3726;SDS011;1879;45.876;12.300;2023-02-15T03:40:26;28.47;;;20.47;;
3726;SDS011;1879;45.876;12.300;2023-02-15T03:43:14;25.67;;;21.60;;
3726;SDS011;1879;45.876;12.300;2023-02-15T03:45:49;27.60;;;21.40;;
3726;SDS011;1879;45.876;12.300;2023-02-15T03:48:21;32.50;;;22.30;;
3726;SDS011;1879;45.876;12.300;2023-02-15T03:50:53;26.97;;;20.90;;
3726;SDS011;1879;45.876;12.300;2023-02-15T03:53:41;27.60;;;21.07;;
3726;SDS011;1879;45.876;12.300;2023-02-15T03:56:10;25.27;;;19.93;;
3726;SDS011;1879;45.876;12.300;2023-02-15T03:58:38;29.20;;;21.37;;
3726;SDS011;1879;45.876;12.300;2023-02-15T04:01:24;29.40;;;20.87;;
3726;SDS011;1879;45.876;12.300;2023-02-15T04:04:17;24.97;;;20.53;;
3726;SDS011;1879;45.876;12.300;2023-02-15T04:06:47;26.30;;;19.53;;
3726;SDS011;1879;45.876;12.300;2023-02-15T04:09:14;25.07;;;19.30;;
3726;SDS011;1879;45.876;12.300;2023-02-15T04:12:00;25.50;;;21.43;;
3726;SDS011;1879;45.876;12.300;2023-02-15T04:14:27;28.47;;;20.57;;
3726;SDS011;1879;45.876;12.300;2023-02-15T04:17:11;28.77;;;22.80;;
3726;SDS011;1879;45.876;12.300;2023-02-15T04:19:38;29.87;;;21.40;;
3726;SDS011;1879;45.876;12.300;2023-02-15T04:22:23;25.47;;;20.17;;
3726;SDS011;1879;45.876;12.300;2023-02-15T04:25:10;24.23;;;19.80;;
3726;SDS011;1879;45.876;12.300;2023-02-15T04:27:37;25.90;;;20.70;;
3726;SDS011;1879;45.876;12.300;2023-02-15T04:30:06;26.07;;;20.50;;
3726;SDS011;1879;45.876;12.300;2023-02-15T04:32:34;28.37;;;19.50;;
3726;SDS011;1879;45.876;12.300;2023-02-15T04:35:01;23.73;;;17.77;;
3726;SDS011;1879;45.876;12.300;2023-02-15T04:37:32;26.20;;;18.67;;
3726;SDS011;1879;45.876;12.300;2023-02-15T04:40:01;18.70;;;14.43;;
3726;SDS011;1879;45.876;12.300;2023-02-15T04:42:30;20.23;;;15.80;;
3726;SDS011;1879;45.876;12.300;2023-02-15T04:44:59;19.60;;;16.03;;
3726;SDS011;1879;45.876;12.300;2023-02-15T04:47:26;21.07;;;15.83;;
3726;SDS011;1879;45.876;12.300;2023-02-15T04:49:53;21.40;;;16.37;;
3726;SDS011;1879;45.876;12.300;2023-02-15T04:52:21;20.70;;;15.80;;
3726;SDS011;1879;45.876;12.300;2023-02-15T04:54:49;19.10;;;15.73;;
3726;SDS011;1879;45.876;12.300;2023-02-15T04:57:16;17.10;;;14.07;;
3726;SDS011;1879;45.876;12.300;2023-02-15T04:59:43;19.13;;;15.10;;
3726;SDS011;1879;45.876;12.300;2023-02-15T05:02:10;17.33;;;13.97;;
3726;SDS011;1879;45.876;12.300;2023-02-15T05:04:37;15.30;;;12.33;;
3726;SDS011;1879;45.876;12.300;2023-02-15T05:07:04;19.60;;;13.93;;
3726;SDS011;1879;45.876;12.300;2023-02-15T05:09:31;22.40;;;14.90;;
3726;SDS011;1879;45.876;12.300;2023-02-15T05:11:59;22.10;;;14.10;;
3726;SDS011;1879;45.876;12.300;2023-02-15T05:14:26;20.00;;;14.67;;
3726;SDS011;1879;45.876;12.300;2023-02-15T05:16:53;18.70;;;14.90;;
3726;SDS011;1879;45.876;12.300;2023-02-15T05:19:20;16.67;;;13.87;;
3726;SDS011;1879;45.876;12.300;2023-02-15T05:21:49;22.13;;;15.63;;
3726;SDS011;1879;45.876;12.300;2023-02-15T05:24:16;19.10;;;14.37;;
3726;SDS011;1879;45.876;12.300;2023-02-15T05:27:02;20.10;;;16.90;;
3726;SDS011;1879;45.876;12.300;2023-02-15T05:29:46;18.03;;;15.60;;
3726;SDS011;1879;45.876;12.300;2023-02-15T05:32:13;20.20;;;16.30;;
3726;SDS011;1879;45.876;12.300;2023-02-15T05:34:41;17.90;;;15.27;;
3726;SDS011;1879;45.876;12.300;2023-02-15T05:37:08;19.47;;;16.53;;
3726;SDS011;1879;45.876;12.300;2023-02-15T05:39:35;18.37;;;15.50;;
3726;SDS011;1879;45.876;12.300;2023-02-15T05:42:03;22.50;;;14.87;;
3726;SDS011;1879;45.876;12.300;2023-02-15T05:44:30;20.83;;;15.23;;
3726;SDS011;1879;45.876;12.300;2023-02-15T05:46:57;24.57;;;15.50;;
3726;SDS011;1879;45.876;12.300;2023-02-15T05:49:24;20.60;;;14.70;;
3726;SDS011;1879;45.876;12.300;2023-02-15T05:51:51;23.27;;;17.67;;
3726;SDS011;1879;45.876;12.300;2023-02-15T05:54:18;19.47;;;16.47;;
3726;SDS011;1879;45.876;12.300;2023-02-15T05:56:45;32.10;;;17.00;;
3726;SDS011;1879;45.876;12.300;2023-02-15T05:59:13;20.80;;;16.23;;
3726;SDS011;1879;45.876;12.300;2023-02-15T06:01:41;24.53;;;16.33;;
3726;SDS011;1879;45.876;12.300;2023-02-15T06:04:08;22.40;;;17.23;;
3726;SDS011;1879;45.876;12.300;2023-02-15T06:06:34;23.67;;;18.00;;
3726;SDS011;1879;45.876;12.300;2023-02-15T06:09:01;21.97;;;16.53;;
3726;SDS011;1879;45.876;12.300;2023-02-15T06:11:29;24.87;;;16.50;;
3726;SDS011;1879;45.876;12.300;2023-02-15T06:13:56;23.57;;;17.40;;
3726;SDS011;1879;45.876;12.300;2023-02-15T06:16:24;32.87;;;18.37;;
3726;SDS011;1879;45.876;12.300;2023-02-15T06:18:51;20.40;;;16.90;;
3726;SDS011;1879;45.876;12.300;2023-02-15T06:21:18;25.20;;;18.37;;
3726;SDS011;1879;45.876;12.300;2023-02-15T06:23:45;23.83;;;18.50;;
3726;SDS011;1879;45.876;12.300;2023-02-15T06:26:12;24.60;;;20.17;;
3726;SDS011;1879;45.876;12.300;2023-02-15T06:28:39;21.40;;;18.90;;
3726;SDS011;1879;45.876;12.300;2023-02-15T06:31:06;35.27;;;20.73;;
3726;SDS011;1879;45.876;12.300;2023-02-15T06:33:34;27.00;;;19.40;;
3726;SDS011;1879;45.876;12.300;2023-02-15T06:36:01;27.20;;;21.57;;
3726;SDS011;1879;45.876;12.300;2023-02-15T06:38:29;25.40;;;20.90;;
3726;SDS011;1879;45.876;12.300;2023-02-15T06:40:57;21.83;;;18.33;;
3726;SDS011;1879;45.876;12.300;2023-02-15T06:43:24;21.40;;;16.57;;
3726;SDS011;1879;45.876;12.300;2023-02-15T06:45:50;20.40;;;17.13;;
3726;SDS011;1879;45.876;12.300;2023-02-15T06:48:17;25.57;;;18.57;;
3726;SDS011;1879;45.876;12.300;2023-02-15T06:50:46;26.07;;;18.27;;
3726;SDS011;1879;45.876;12.300;2023-02-15T06:53:14;26.37;;;17.03;;
3726;SDS011;1879;45.876;12.300;2023-02-15T06:55:41;25.57;;;19.17;;
3726;SDS011;1879;45.876;12.300;2023-02-15T06:58:08;21.43;;;17.90;;
3726;SDS011;1879;45.876;12.300;2023-02-15T07:00:37;21.80;;;18.40;;
3726;SDS011;1879;45.876;12.300;2023-02-15T07:03:04;26.57;;;18.20;;
3726;SDS011;1879;45.876;12.300;2023-02-15T07:05:32;25.23;;;18.50;;
3726;SDS011;1879;45.876;12.300;2023-02-15T07:08:01;40.17;;;21.73;;
3726;SDS011;1879;45.876;12.300;2023-02-15T07:10:29;47.57;;;30.30;;
3726;SDS011;1879;45.876;12.300;2023-02-15T07:12:55;49.80;;;30.50;;
3726;SDS011;1879;45.876;12.300;2023-02-15T07:15:22;43.23;;;30.60;;
3726;SDS011;1879;45.876;12.300;2023-02-15T07:17:49;30.77;;;22.30;;
3726;SDS011;1879;45.876;12.300;2023-02-15T07:20:17;35.37;;;24.20;;
3726;SDS011;1879;45.876;12.300;2023-02-15T07:22:46;35.33;;;23.47;;
3726;SDS011;1879;45.876;12.300;2023-02-15T07:25:15;40.87;;;23.87;;
3726;SDS011;1879;45.876;12.300;2023-02-15T07:27:43;31.73;;;22.10;;
3726;SDS011;1879;45.876;12.300;2023-02-15T07:30:11;35.67;;;23.73;;
3726;SDS011;1879;45.876;12.300;2023-02-15T07:32:39;37.20;;;29.70;;
3726;SDS011;1879;45.876;12.300;2023-02-15T07:35:27;34.50;;;27.97;;
3726;SDS011;1879;45.876;12.300;2023-02-15T07:37:54;32.80;;;27.37;;
3726;SDS011;1879;45.876;12.300;2023-02-15T07:40:22;36.37;;;30.47;;
3726;SDS011;1879;45.876;12.300;2023-02-15T07:42:50;38.50;;;26.10;;
3726;SDS011;1879;45.876;12.300;2023-02-15T07:45:19;26.57;;;23.77;;
3726;SDS011;1879;45.876;12.300;2023-02-15T07:47:47;36.57;;;28.97;;
3726;SDS011;1879;45.876;12.300;2023-02-15T07:50:14;37.23;;;31.07;;
3726;SDS011;1879;45.876;12.300;2023-02-15T07:52:41;33.70;;;30.10;;
3726;SDS011;1879;45.876;12.300;2023-02-15T07:55:08;32.17;;;27.13;;
3726;SDS011;1879;45.876;12.300;2023-02-15T07:57:42;35.60;;;25.70;;
3726;SDS011;1879;45.876;12.300;2023-02-15T08:00:10;26.50;;;22.00;;
3726;SDS011;1879;45.876;12.300;2023-02-15T08:02:38;30.80;;;22.20;;
3726;SDS011;1879;45.876;12.300;2023-02-15T08:05:05;30.73;;;20.90;;
3726;SDS011;1879;45.876;12.300;2023-02-15T08:07:32;27.20;;;21.00;;
3726;SDS011;1879;45.876;12.300;2023-02-15T08:10:00;21.73;;;19.17;;
3726;SDS011;1879;45.876;12.300;2023-02-15T08:12:26;31.43;;;18.93;;
3726;SDS011;1879;45.876;12.300;2023-02-15T08:14:55;24.33;;;19.37;;
3726;SDS011;1879;45.876;12.300;2023-02-15T08:17:22;26.70;;;19.50;;
3726;SDS011;1879;45.876;12.300;2023-02-15T08:19:49;24.20;;;18.60;;
3726;SDS011;1879;45.876;12.300;2023-02-15T08:22:16;23.60;;;18.17;;
3726;SDS011;1879;45.876;12.300;2023-02-15T08:24:43;21.43;;;19.20;;
3726;SDS011;1879;45.876;12.300;2023-02-15T08:27:10;21.95;;;19.38;;
3726;SDS011;1879;45.876;12.300;2023-02-15T08:29:38;26.20;;;18.17;;
3726;SDS011;1879;45.876;12.300;2023-02-15T08:32:09;21.83;;;19.00;;
3726;SDS011;1879;45.876;12.300;2023-02-15T08:34:38;24.13;;;18.30;;
3726;SDS011;1879;45.876;12.300;2023-02-15T08:37:07;25.20;;;18.77;;
3726;SDS011;1879;45.876;12.300;2023-02-15T08:39:34;18.83;;;16.80;;
3726;SDS011;1879;45.876;12.300;2023-02-15T08:42:01;18.87;;;16.90;;
3726;SDS011;1879;45.876;12.300;2023-02-15T08:44:29;25.60;;;19.30;;
3726;SDS011;1879;45.876;12.300;2023-02-15T08:46:56;23.60;;;19.53;;
3726;SDS011;1879;45.876;12.300;2023-02-15T08:49:29;19.97;;;17.87;;
3726;SDS011;1879;45.876;12.300;2023-02-15T08:51:56;23.53;;;19.50;;
3726;SDS011;1879;45.876;12.300;2023-02-15T08:54:23;25.70;;;20.13;;
3726;SDS011;1879;45.876;12.300;2023-02-15T08:56:50;28.17;;;22.17;;
3726;SDS011;1879;45.876;12.300;2023-02-15T08:59:18;24.80;;;19.30;;
3726;SDS011;1879;45.876;12.300;2023-02-15T09:01:46;24.80;;;18.33;;
3726;SDS011;1879;45.876;12.300;2023-02-15T09:04:14;30.97;;;20.00;;
3726;SDS011;1879;45.876;12.300;2023-02-15T09:06:43;18.00;;;15.77;;
3726;SDS011;1879;45.876;12.300;2023-02-15T09:09:11;17.87;;;15.53;;
3726;SDS011;1879;45.876;12.300;2023-02-15T09:11:40;19.03;;;15.00;;
3726;SDS011;1879;45.876;12.300;2023-02-15T09:14:09;14.67;;;13.17;;
3726;SDS011;1879;45.876;12.300;2023-02-15T09:16:38;16.70;;;14.10;;
3726;SDS011;1879;45.876;12.300;2023-02-15T09:19:06;15.93;;;13.77;;
3726;SDS011;1879;45.876;12.300;2023-02-15T09:21:35;16.47;;;13.60;;
3726;SDS011;1879;45.876;12.300;2023-02-15T09:24:05;16.80;;;13.47;;
3726;SDS011;1879;45.876;12.300;2023-02-15T09:26:34;16.03;;;13.87;;
3726;SDS011;1879;45.876;12.300;2023-02-15T09:29:02;18.10;;;13.73;;
3726;SDS011;1879;45.876;12.300;2023-02-15T09:31:30;18.90;;;15.20;;
3726;SDS011;1879;45.876;12.300;2023-02-15T09:33:58;20.23;;;15.30;;
3726;SDS011;1879;45.876;12.300;2023-02-15T09:36:27;20.13;;;14.93;;
3726;SDS011;1879;45.876;12.300;2023-02-15T09:38:56;18.50;;;16.07;;
3726;SDS011;1879;45.876;12.300;2023-02-15T09:41:30;24.43;;;16.10;;
3726;SDS011;1879;45.876;12.300;2023-02-15T09:44:25;21.17;;;18.77;;
3726;SDS011;1879;45.876;12.300;2023-02-15T09:47:09;21.30;;;17.37;;
3726;SDS011;1879;45.876;12.300;2023-02-15T09:49:54;20.30;;;16.17;;
3726;SDS011;1879;45.876;12.300;2023-02-15T09:52:33;20.77;;;15.87;;
3726;SDS011;1879;45.876;12.300;2023-02-15T09:55:08;20.60;;;16.00;;
3726;SDS011;1879;45.876;12.300;2023-02-15T09:57:53;18.63;;;15.20;;
3726;SDS011;1879;45.876;12.300;2023-02-15T10:00:28;19.50;;;16.97;;
3726;SDS011;1879;45.876;12.300;2023-02-15T10:03:12;19.90;;;17.63;;
3726;SDS011;1879;45.876;12.300;2023-02-15T10:05:53;23.07;;;17.87;;
3726;SDS011;1879;45.876;12.300;2023-02-15T10:08:35;23.40;;;17.10;;
3726;SDS011;1879;45.876;12.300;2023-02-15T10:11:26;25.40;;;18.73;;
3726;SDS011;1879;45.876;12.300;2023-02-15T10:14:15;26.27;;;18.93;;
3726;SDS011;1879;45.876;12.300;2023-02-15T10:17:05;21.90;;;18.20;;
3726;SDS011;1879;45.876;12.300;2023-02-15T10:19:43;23.30;;;18.30;;
3726;SDS011;1879;45.876;12.300;2023-02-15T10:22:21;28.43;;;20.20;;
3726;SDS011;1879;45.876;12.300;2023-02-15T10:25:03;22.87;;;19.20;;
3726;SDS011;1879;45.876;12.300;2023-02-15T10:27:46;24.67;;;19.70;;
3726;SDS011;1879;45.876;12.300;2023-02-15T10:30:16;26.40;;;19.23;;
3726;SDS011;1879;45.876;12.300;2023-02-15T10:32:52;26.43;;;18.83;;
3726;SDS011;1879;45.876;12.300;2023-02-15T10:35:26;27.33;;;19.53;;
3726;SDS011;1879;45.876;12.300;2023-02-15T10:38:08;27.77;;;19.40;;
3726;SDS011;1879;45.876;12.300;2023-02-15T10:40:51;21.37;;;17.07;;
3726;SDS011;1879;45.876;12.300;2023-02-15T10:43:34;33.03;;;19.37;;
3726;SDS011;1879;45.876;12.300;2023-02-15T10:46:18;22.97;;;17.60;;
3726;SDS011;1879;45.876;12.300;2023-02-15T10:48:56;27.10;;;18.27;;
3726;SDS011;1879;45.876;12.300;2023-02-15T10:51:44;22.20;;;16.23;;
3726;SDS011;1879;45.876;12.300;2023-02-15T10:54:22;21.60;;;17.50;;
3726;SDS011;1879;45.876;12.300;2023-02-15T10:57:02;22.63;;;16.70;;
3726;SDS011;1879;45.876;12.300;2023-02-15T10:59:37;20.50;;;16.57;;
3726;SDS011;1879;45.876;12.300;2023-02-15T11:02:20;22.23;;;17.10;;
3726;SDS011;1879;45.876;12.300;2023-02-15T11:05:02;25.90;;;17.80;;
3726;SDS011;1879;45.876;12.300;2023-02-15T11:07:43;23.90;;;17.53;;
3726;SDS011;1879;45.876;12.300;2023-02-15T11:10:15;22.77;;;17.33;;
3726;SDS011;1879;45.876;12.300;2023-02-15T11:12:52;26.63;;;17.80;;
3726;SDS011;1879;45.876;12.300;2023-02-15T11:15:24;25.83;;;17.77;;
3726;SDS011;1879;45.876;12.300;2023-02-15T11:17:58;26.30;;;17.90;;
3726;SDS011;1879;45.876;12.300;2023-02-15T11:20:30;26.27;;;18.77;;
3726;SDS011;1879;45.876;12.300;2023-02-15T11:23:01;24.80;;;18.77;;
3726;SDS011;1879;45.876;12.300;2023-02-15T11:25:29;24.70;;;18.67;;
3726;SDS011;1879;45.876;12.300;2023-02-15T11:27:58;24.40;;;18.83;;
3726;SDS011;1879;45.876;12.300;2023-02-15T11:30:33;28.03;;;19.60;;
3726;SDS011;1879;45.876;12.300;2023-02-15T11:33:13;23.70;;;19.07;;
3726;SDS011;1879;45.876;12.300;2023-02-15T11:35:47;25.40;;;20.00;;
3726;SDS011;1879;45.876;12.300;2023-02-15T11:38:17;24.90;;;20.33;;
3726;SDS011;1879;45.876;12.300;2023-02-15T11:40:48;23.03;;;20.53;;
3726;SDS011;1879;45.876;12.300;2023-02-15T11:43:18;26.33;;;22.07;;
3726;SDS011;1879;45.876;12.300;2023-02-15T11:45:52;29.80;;;20.60;;
3726;SDS011;1879;45.876;12.300;2023-02-15T11:48:20;25.10;;;19.73;;
3726;SDS011;1879;45.876;12.300;2023-02-15T11:50:48;22.80;;;19.83;;
3726;SDS011;1879;45.876;12.300;2023-02-15T11:53:16;22.83;;;19.37;;
3726;SDS011;1879;45.876;12.300;2023-02-15T11:55:46;21.40;;;18.70;;
3726;SDS011;1879;45.876;12.300;2023-02-15T11:58:19;21.43;;;18.30;;
3726;SDS011;1879;45.876;12.300;2023-02-15T12:00:54;22.60;;;18.00;;
3726;SDS011;1879;45.876;12.300;2023-02-15T12:03:28;21.17;;;18.33;;
3726;SDS011;1879;45.876;12.300;2023-02-15T12:06:05;20.17;;;18.03;;
3726;SDS011;1879;45.876;12.300;2023-02-15T12:08:42;23.70;;;21.50;;
3726;SDS011;1879;45.876;12.300;2023-02-15T12:11:11;23.57;;;20.10;;
3726;SDS011;1879;45.876;12.300;2023-02-15T12:16:32;24.53;;;20.90;;
3726;SDS011;1879;45.876;12.300;2023-02-15T12:19:12;22.20;;;18.97;;
3726;SDS011;1879;45.876;12.300;2023-02-15T12:21:51;23.30;;;20.13;;
3726;SDS011;1879;45.876;12.300;2023-02-15T12:24:20;23.50;;;20.80;;
3726;SDS011;1879;45.876;12.300;2023-02-15T12:26:56;24.50;;;20.87;;
3726;SDS011;1879;45.876;12.300;2023-02-15T12:29:26;23.13;;;20.00;;
3726;SDS011;1879;45.876;12.300;2023-02-15T12:31:55;23.60;;;20.43;;
3726;SDS011;1879;45.876;12.300;2023-02-15T12:34:26;20.80;;;18.57;;
3726;SDS011;1879;45.876;12.300;2023-02-15T12:36:56;19.80;;;17.77;;
3726;SDS011;1879;45.876;12.300;2023-02-15T12:39:27;24.20;;;18.70;;
3726;SDS011;1879;45.876;12.300;2023-02-15T12:41:59;24.40;;;20.07;;
3726;SDS011;1879;45.876;12.300;2023-02-15T12:44:30;22.23;;;19.30;;
3726;SDS011;1879;45.876;12.300;2023-02-15T12:46:59;20.97;;;18.70;;
3726;SDS011;1879;45.876;12.300;2023-02-15T12:49:30;21.83;;;19.70;;
3726;SDS011;1879;45.876;12.300;2023-02-15T12:51:58;21.60;;;19.40;;
3726;SDS011;1879;45.876;12.300;2023-02-15T12:54:31;22.70;;;18.67;;
3726;SDS011;1879;45.876;12.300;2023-02-15T12:57:14;22.30;;;20.13;;
3726;SDS011;1879;45.876;12.300;2023-02-15T12:59:48;21.90;;;19.70;;
3726;SDS011;1879;45.876;12.300;2023-02-15T13:02:19;22.30;;;19.90;;
3726;SDS011;1879;45.876;12.300;2023-02-15T13:04:50;23.40;;;20.00;;
3726;SDS011;1879;45.876;12.300;2023-02-15T13:07:18;21.17;;;18.80;;
3726;SDS011;1879;45.876;12.300;2023-02-15T13:09:46;21.17;;;18.53;;
3726;SDS011;1879;45.876;12.300;2023-02-15T13:12:18;19.93;;;18.00;;
3726;SDS011;1879;45.876;12.300;2023-02-15T13:14:48;19.73;;;17.90;;
3726;SDS011;1879;45.876;12.300;2023-02-15T13:17:19;20.17;;;16.60;;
3726;SDS011;1879;45.876;12.300;2023-02-15T13:19:56;20.50;;;17.20;;
3726;SDS011;1879;45.876;12.300;2023-02-15T13:22:28;19.37;;;17.40;;
3726;SDS011;1879;45.876;12.300;2023-02-15T13:25:04;17.80;;;15.90;;
3726;SDS011;1879;45.876;12.300;2023-02-15T13:27:39;16.70;;;14.80;;
3726;SDS011;1879;45.876;12.300;2023-02-15T13:30:14;15.97;;;14.30;;
3726;SDS011;1879;45.876;12.300;2023-02-15T13:32:48;13.40;;;12.00;;
3726;SDS011;1879;45.876;12.300;2023-02-15T13:35:19;187.53;;;54.57;;
3726;SDS011;1879;45.876;12.300;2023-02-15T13:40:37;28.73;;;17.73;;
3726;SDS011;1879;45.876;12.300;2023-02-15T13:43:13;22.23;;;19.10;;
3726;SDS011;1879;45.876;12.300;2023-02-15T13:45:52;25.73;;;23.10;;
3726;SDS011;1879;45.876;12.300;2023-02-15T13:48:34;21.27;;;19.00;;
3726;SDS011;1879;45.876;12.300;2023-02-15T13:51:09;26.40;;;23.70;;
3726;SDS011;1879;45.876;12.300;2023-02-15T13:56:38;19.40;;;17.40;;
3726;SDS011;1879;45.876;12.300;2023-02-15T13:59:16;20.20;;;16.63;;
3726;SDS011;1879;45.876;12.300;2023-02-15T14:02:15;19.53;;;16.30;;
3726;SDS011;1879;45.876;12.300;2023-02-15T14:05:05;22.80;;;16.60;;
3726;SDS011;1879;45.876;12.300;2023-02-15T14:07:55;17.27;;;15.40;;
3726;SDS011;1879;45.876;12.300;2023-02-15T14:16:26;21.30;;;17.37;;
3726;SDS011;1879;45.876;12.300;2023-02-15T14:19:03;18.50;;;16.40;;
3726;SDS011;1879;45.876;12.300;2023-02-15T14:21:41;19.30;;;17.17;;
3726;SDS011;1879;45.876;12.300;2023-02-15T14:24:21;21.40;;;18.20;;
3726;SDS011;1879;45.876;12.300;2023-02-15T14:26:55;22.67;;;17.30;;
3726;SDS011;1879;45.876;12.300;2023-02-15T14:29:35;23.47;;;17.23;;
3726;SDS011;1879;45.876;12.300;2023-02-15T14:32:10;24.33;;;18.50;;
3726;SDS011;1879;45.876;12.300;2023-02-15T14:34:42;21.53;;;17.80;;
3726;SDS011;1879;45.876;12.300;2023-02-15T14:37:14;21.20;;;18.80;;
3726;SDS011;1879;45.876;12.300;2023-02-15T14:39:51;23.07;;;17.93;;
3726;SDS011;1879;45.876;12.300;2023-02-15T14:42:43;24.97;;;19.87;;
3726;SDS011;1879;45.876;12.300;2023-02-15T14:45:19;25.63;;;18.03;;
3726;SDS011;1879;45.876;12.300;2023-02-15T14:47:52;22.23;;;17.80;;
3726;SDS011;1879;45.876;12.300;2023-02-15T14:50:35;22.00;;;17.90;;
3726;SDS011;1879;45.876;12.300;2023-02-15T14:53:15;19.93;;;15.90;;
3726;SDS011;1879;45.876;12.300;2023-02-15T14:56:06;21.00;;;16.57;;
3726;SDS011;1879;45.876;12.300;2023-02-15T15:01:50;26.00;;;17.27;;
3726;SDS011;1879;45.876;12.300;2023-02-15T15:04:28;22.83;;;19.17;;
3726;SDS011;1879;45.876;12.300;2023-02-15T15:06:59;22.07;;;18.03;;
3726;SDS011;1879;45.876;12.300;2023-02-15T15:09:31;23.70;;;18.43;;
3726;SDS011;1879;45.876;12.300;2023-02-15T15:15:07;23.30;;;18.97;;
3726;SDS011;1879;45.876;12.300;2023-02-15T15:17:53;22.10;;;17.70;;
3726;SDS011;1879;45.876;12.300;2023-02-15T15:20:42;27.67;;;19.20;;
3726;SDS011;1879;45.876;12.300;2023-02-15T15:26:20;25.30;;;18.93;;
3726;SDS011;1879;45.876;12.300;2023-02-15T15:28:55;28.13;;;19.20;;